createdAt,value
2022-10-31T00:00:45.309Z,1024.35
2022-10-31T00:01:45.235Z,1024.32
2022-10-31T00:02:45.143Z,1024.32
2022-10-31T00:03:45.119Z,1024.33
2022-10-31T00:04:45.093Z,1024.34
2022-10-31T00:05:45.090Z,1024.32
2022-10-31T00:06:45.130Z,1024.3
2022-10-31T00:07:45.113Z,1024.3
2022-10-31T00:08:45.095Z,1024.3
2022-10-31T00:09:45.096Z,1024.29
2022-10-31T00:10:45.103Z,1024.23
2022-10-31T00:11:45.095Z,1024.27
2022-10-31T00:12:45.112Z,1024.26
2022-10-31T00:13:45.118Z,1024.29
2022-10-31T00:14:45.093Z,1024.24
2022-10-31T00:15:45.095Z,1024.28
2022-10-31T00:16:45.094Z,1024.3
2022-10-31T00:17:45.123Z,1024.29
2022-10-31T00:18:45.092Z,1024.27
2022-10-31T00:19:45.092Z,1024.33
2022-10-31T00:20:45.093Z,1024.28
2022-10-31T00:21:45.105Z,1024.27
2022-10-31T00:22:45.108Z,1024.3
2022-10-31T00:23:45.115Z,1024.34
2022-10-31T00:24:45.091Z,1024.29
2022-10-31T00:25:45.103Z,1024.26
2022-10-31T00:26:45.114Z,1024.29
2022-10-31T00:27:45.121Z,1024.33
2022-10-31T00:28:45.110Z,1024.34
2022-10-31T00:29:45.096Z,1024.34
2022-10-31T00:30:45.109Z,1024.34
2022-10-31T00:31:45.111Z,1024.33
2022-10-31T00:32:45.113Z,1024.33
2022-10-31T00:33:45.108Z,1024.34
2022-10-31T00:34:45.135Z,1024.34
2022-10-31T00:35:45.092Z,1024.34
2022-10-31T00:36:45.114Z,1024.34
2022-10-31T00:37:45.121Z,1024.33
2022-10-31T00:38:45.094Z,1024.35
2022-10-31T00:39:45.112Z,1024.34
2022-10-31T00:40:45.108Z,1024.34
2022-10-31T00:41:45.125Z,1024.29
2022-10-31T00:42:45.116Z,1024.31
2022-10-31T00:43:45.119Z,1024.3
2022-10-31T00:44:45.106Z,1024.3
2022-10-31T00:45:45.108Z,1024.31
2022-10-31T00:46:45.105Z,1024.28
2022-10-31T00:47:45.120Z,1024.35
2022-10-31T00:48:45.104Z,1024.34
2022-10-31T00:49:45.106Z,1024.32
2022-10-31T00:50:45.102Z,1024.35
2022-10-31T00:51:45.100Z,1024.33
2022-10-31T00:52:45.112Z,1024.33
2022-10-31T00:53:45.115Z,1024.35
2022-10-31T00:54:45.111Z,1024.34
2022-10-31T00:55:45.114Z,1024.38
2022-10-31T00:56:45.108Z,1024.4
2022-10-31T00:57:45.127Z,1024.35
2022-10-31T00:58:45.127Z,1024.35
2022-10-31T00:59:45.116Z,1024.36
2022-10-31T01:00:48.076Z,1024.36
2022-10-31T01:01:45.268Z,1024.3
2022-10-31T01:02:45.244Z,1024.35
2022-10-31T01:03:45.112Z,1024.35
2022-10-31T01:04:45.096Z,1024.35
2022-10-31T01:05:45.097Z,1024.31
2022-10-31T01:06:45.089Z,1024.34
2022-10-31T01:07:45.127Z,1024.38
2022-10-31T01:08:45.181Z,1024.38
2022-10-31T01:09:45.113Z,1024.33
2022-10-31T01:10:45.112Z,1024.32
2022-10-31T01:11:45.112Z,1024.34
2022-10-31T01:12:45.122Z,1024.36
2022-10-31T01:13:45.094Z,1024.36
2022-10-31T01:14:45.103Z,1024.38
2022-10-31T01:15:45.095Z,1024.37
2022-10-31T01:16:45.094Z,1024.36
2022-10-31T01:17:45.118Z,1024.36
2022-10-31T01:18:45.094Z,1024.34
2022-10-31T01:19:45.093Z,1024.34
2022-10-31T01:20:45.092Z,1024.35
2022-10-31T01:21:45.096Z,1024.37
2022-10-31T01:22:45.111Z,1024.3
2022-10-31T01:23:45.091Z,1024.34
2022-10-31T01:24:45.093Z,1024.34
2022-10-31T01:25:45.091Z,1024.27
2022-10-31T01:26:45.094Z,1024.32
2022-10-31T01:27:45.110Z,1024.35
2022-10-31T01:28:45.229Z,1024.35
2022-10-31T01:29:45.094Z,1024.33
2022-10-31T01:30:45.093Z,1024.33
2022-10-31T01:31:45.098Z,1024.28
2022-10-31T01:32:45.118Z,1024.32
2022-10-31T01:33:45.106Z,1024.28
2022-10-31T01:34:45.108Z,1024.37
2022-10-31T01:35:45.109Z,1024.28
2022-10-31T01:36:45.108Z,1024.3
2022-10-31T01:37:45.115Z,1024.33
2022-10-31T01:38:45.131Z,1024.29
2022-10-31T01:39:45.102Z,1024.3
2022-10-31T01:40:45.103Z,1024.28
2022-10-31T01:41:45.103Z,1024.28
2022-10-31T01:42:45.117Z,1024.26
2022-10-31T01:43:45.093Z,1024.33
2022-10-31T01:44:45.107Z,1024.29
2022-10-31T01:45:45.114Z,1024.27
2022-10-31T01:46:45.111Z,1024.28
2022-10-31T01:47:45.123Z,1024.27
2022-10-31T01:48:45.147Z,1024.26
2022-10-31T01:49:45.119Z,1024.27
2022-10-31T01:50:45.112Z,1024.23
2022-10-31T01:51:45.101Z,1024.27
2022-10-31T01:52:45.119Z,1024.24
2022-10-31T01:53:45.117Z,1024.19
2022-10-31T01:54:45.119Z,1024.21
2022-10-31T01:55:45.107Z,1024.21
2022-10-31T01:56:45.104Z,1024.19
2022-10-31T01:57:45.118Z,1024.23
2022-10-31T01:58:45.107Z,1024.21
2022-10-31T01:59:45.102Z,1024.27
2022-10-31T02:00:45.181Z,1024.27
2022-10-31T02:01:45.250Z,1024.23
2022-10-31T02:02:45.235Z,1024.21
2022-10-31T02:03:45.109Z,1024.28
2022-10-31T02:04:45.119Z,1024.31
2022-10-31T02:05:45.103Z,1024.26
2022-10-31T02:06:45.110Z,1024.23
2022-10-31T02:07:45.119Z,1024.27
2022-10-31T02:08:45.107Z,1024.27
2022-10-31T02:09:45.111Z,1024.31
2022-10-31T02:10:45.118Z,1024.32
2022-10-31T02:11:45.111Z,1024.34
2022-10-31T02:12:45.112Z,1024.29
2022-10-31T02:13:45.106Z,1024.33
2022-10-31T02:14:45.110Z,1024.28
2022-10-31T02:15:45.111Z,1024.32
2022-10-31T02:16:45.129Z,1024.29
2022-10-31T02:17:45.126Z,1024.34
2022-10-31T02:18:45.115Z,1024.36
2022-10-31T02:19:45.096Z,1024.35
2022-10-31T02:20:45.096Z,1024.35
2022-10-31T02:21:45.113Z,1024.32
2022-10-31T02:22:45.208Z,1024.36
2022-10-31T02:23:47.878Z,1024.36
2022-10-31T02:24:45.102Z,1024.33
2022-10-31T02:25:45.099Z,1024.34
2022-10-31T02:26:45.092Z,1024.35
2022-10-31T02:27:45.120Z,1024.33
2022-10-31T02:28:45.199Z,1024.34
2022-10-31T02:29:45.096Z,1024.34
2022-10-31T02:30:45.116Z,1024.34
2022-10-31T02:31:45.094Z,1024.28
2022-10-31T02:32:45.113Z,1024.3
2022-10-31T02:33:45.108Z,1024.3
2022-10-31T02:34:45.093Z,1024.32
2022-10-31T02:35:45.120Z,1024.32
2022-10-31T02:36:45.112Z,1024.32
2022-10-31T02:37:45.120Z,1024.3
2022-10-31T02:38:45.159Z,1024.3
2022-10-31T02:39:45.094Z,1024.28
2022-10-31T02:40:45.099Z,1024.3
2022-10-31T02:41:45.093Z,1024.32
2022-10-31T02:42:45.120Z,1024.32
2022-10-31T02:43:45.118Z,1024.32
2022-10-31T02:44:45.109Z,1024.32
2022-10-31T02:45:45.114Z,1024.32
2022-10-31T02:46:45.105Z,1024.37
2022-10-31T02:47:45.122Z,1024.35
2022-10-31T02:48:45.093Z,1024.36
2022-10-31T02:49:45.115Z,1024.34
2022-10-31T02:50:45.108Z,1024.32
2022-10-31T02:51:45.111Z,1024.3
2022-10-31T02:52:45.122Z,1024.32
2022-10-31T02:53:45.128Z,1024.35
2022-10-31T02:54:45.112Z,1024.37
2022-10-31T02:55:45.109Z,1024.35
2022-10-31T02:56:45.110Z,1024.37
2022-10-31T02:57:45.131Z,1024.36
2022-10-31T02:58:45.114Z,1024.35
2022-10-31T02:59:45.110Z,1024.35
2022-10-31T03:00:47.070Z,1024.35
2022-10-31T03:01:45.247Z,1024.34
2022-10-31T03:02:45.313Z,1024.37
2022-10-31T03:03:45.115Z,1024.42
2022-10-31T03:04:45.095Z,1024.39
2022-10-31T03:05:45.124Z,1024.4
2022-10-31T03:06:45.116Z,1024.39
2022-10-31T03:07:45.138Z,1024.42
2022-10-31T03:08:45.159Z,1024.42
2022-10-31T03:09:45.116Z,1024.45
2022-10-31T03:10:45.122Z,1024.45
2022-10-31T03:11:45.113Z,1024.43
2022-10-31T03:12:47.786Z,1024.45
2022-10-31T03:13:45.118Z,1024.5
2022-10-31T03:14:45.116Z,1024.43
2022-10-31T03:15:45.115Z,1024.45
2022-10-31T03:16:45.107Z,1024.45
2022-10-31T03:17:45.126Z,1024.43
2022-10-31T03:18:45.112Z,1024.45
2022-10-31T03:19:45.170Z,1024.51
2022-10-31T03:20:45.121Z,1024.43
2022-10-31T03:21:45.106Z,1024.49
2022-10-31T03:22:45.121Z,1024.5
2022-10-31T03:23:45.127Z,1024.49
2022-10-31T03:24:45.124Z,1024.53
2022-10-31T03:25:45.109Z,1024.53
2022-10-31T03:26:45.116Z,1024.54
2022-10-31T03:27:45.125Z,1024.55
2022-10-31T03:28:45.106Z,1024.58
2022-10-31T03:29:45.122Z,1024.57
2022-10-31T03:30:45.116Z,1024.57
2022-10-31T03:31:45.093Z,1024.58
2022-10-31T03:32:45.115Z,1024.58
2022-10-31T03:33:45.091Z,1024.61
2022-10-31T03:34:45.101Z,1024.57
2022-10-31T03:35:45.096Z,1024.57
2022-10-31T03:36:45.092Z,1024.59
2022-10-31T03:37:45.116Z,1024.58
2022-10-31T03:38:45.092Z,1024.61
2022-10-31T03:39:45.119Z,1024.61
2022-10-31T03:40:45.093Z,1024.61
2022-10-31T03:41:45.097Z,1024.65
2022-10-31T03:42:45.118Z,1024.63
2022-10-31T03:43:45.099Z,1024.63
2022-10-31T03:44:45.098Z,1024.62
2022-10-31T03:45:45.110Z,1024.66
2022-10-31T03:46:45.096Z,1024.64
2022-10-31T03:47:45.151Z,1024.62
2022-10-31T03:48:45.094Z,1024.62
2022-10-31T03:49:45.134Z,1024.63
2022-10-31T03:50:45.108Z,1024.61
2022-10-31T03:51:45.105Z,1024.64
2022-10-31T03:52:45.124Z,1024.68
2022-10-31T03:53:45.113Z,1024.63
2022-10-31T03:54:45.127Z,1024.63
2022-10-31T03:55:45.105Z,1024.64
2022-10-31T03:56:45.118Z,1024.64
2022-10-31T03:57:45.132Z,1024.66
2022-10-31T03:58:45.116Z,1024.64
2022-10-31T03:59:45.122Z,1024.68
2022-10-31T04:00:45.093Z,1024.68
2022-10-31T04:01:45.252Z,1024.71
2022-10-31T04:02:45.278Z,1024.69
2022-10-31T04:03:45.115Z,1024.69
2022-10-31T04:04:45.106Z,1024.68
2022-10-31T04:05:45.119Z,1024.71
2022-10-31T04:06:45.132Z,1024.67
2022-10-31T04:07:45.125Z,1024.67
2022-10-31T04:08:45.112Z,1024.67
2022-10-31T04:09:45.121Z,1024.68
2022-10-31T04:10:45.121Z,1024.71
2022-10-31T04:11:45.111Z,1024.76
2022-10-31T04:12:45.124Z,1024.75
2022-10-31T04:13:45.117Z,1024.71
2022-10-31T04:14:45.118Z,1024.7
2022-10-31T04:15:45.116Z,1024.68
2022-10-31T04:16:45.098Z,1024.68
2022-10-31T04:17:45.122Z,1024.76
2022-10-31T04:18:45.114Z,1024.7
2022-10-31T04:19:45.116Z,1024.73
2022-10-31T04:20:45.117Z,1024.73
2022-10-31T04:21:45.112Z,1024.69
2022-10-31T04:22:45.114Z,1024.71
2022-10-31T04:23:45.112Z,1024.71
2022-10-31T04:24:45.133Z,1024.75
2022-10-31T04:25:45.110Z,1024.77
2022-10-31T04:26:45.111Z,1024.77
2022-10-31T04:27:45.126Z,1024.79
2022-10-31T04:28:45.107Z,1024.76
2022-10-31T04:29:48.229Z,1024.74
2022-10-31T04:30:45.092Z,1024.74
2022-10-31T04:31:45.114Z,1024.78
2022-10-31T04:32:45.166Z,1024.75
2022-10-31T04:33:45.123Z,1024.81
2022-10-31T04:34:45.112Z,1024.81
2022-10-31T04:35:45.110Z,1024.8
2022-10-31T04:36:45.111Z,1024.76
2022-10-31T04:37:45.121Z,1024.74
2022-10-31T04:38:45.128Z,1024.75
2022-10-31T04:39:45.129Z,1024.76
2022-10-31T04:40:45.135Z,1024.77
2022-10-31T04:41:45.138Z,1024.84
2022-10-31T04:42:45.123Z,1024.84
2022-10-31T04:43:45.101Z,1024.83
2022-10-31T04:44:45.098Z,1024.85
2022-10-31T04:45:45.107Z,1024.85
2022-10-31T04:46:45.098Z,1024.85
2022-10-31T04:47:45.126Z,1024.82
2022-10-31T04:48:45.107Z,1024.85
2022-10-31T04:49:45.099Z,1024.84
2022-10-31T04:50:45.094Z,1024.87
2022-10-31T04:51:45.107Z,1024.86
2022-10-31T04:52:45.116Z,1024.86
2022-10-31T04:53:45.092Z,1024.89
2022-10-31T04:54:45.124Z,1024.9
2022-10-31T04:55:45.097Z,1024.9
2022-10-31T04:56:45.108Z,1024.89
2022-10-31T04:57:45.120Z,1024.9
2022-10-31T04:58:45.096Z,1024.92
2022-10-31T04:59:45.102Z,1024.93
2022-10-31T05:00:45.152Z,1024.93
2022-10-31T05:01:45.275Z,1024.89
2022-10-31T05:02:45.123Z,1024.93
2022-10-31T05:03:45.118Z,1024.89
2022-10-31T05:04:45.113Z,1024.9
2022-10-31T05:05:45.117Z,1024.97
2022-10-31T05:06:45.106Z,1024.92
2022-10-31T05:07:45.128Z,1024.94
2022-10-31T05:08:45.111Z,1024.94
2022-10-31T05:09:45.123Z,1024.93
2022-10-31T05:10:45.092Z,1024.93
2022-10-31T05:11:45.113Z,1024.96
2022-10-31T05:12:45.138Z,1024.93
2022-10-31T05:13:45.114Z,1024.93
2022-10-31T05:14:48.495Z,1024.94
2022-10-31T05:15:45.116Z,1024.93
2022-10-31T05:16:45.109Z,1024.96
2022-10-31T05:17:45.175Z,1025.01
2022-10-31T05:18:45.119Z,1025.03
2022-10-31T05:19:45.110Z,1025.01
2022-10-31T05:20:45.109Z,1025.03
2022-10-31T05:21:45.112Z,1025.05
2022-10-31T05:22:45.118Z,1025.06
2022-10-31T05:23:47.580Z,1025.09
2022-10-31T05:24:45.117Z,1025.09
2022-10-31T05:25:45.118Z,1025.08
2022-10-31T05:26:45.097Z,1025.11
2022-10-31T05:27:45.123Z,1025.03
2022-10-31T05:28:45.119Z,1025.05
2022-10-31T05:29:45.112Z,1025.06
2022-10-31T05:30:45.118Z,1025.06
2022-10-31T05:31:45.115Z,1025.11
2022-10-31T05:32:45.119Z,1025.12
2022-10-31T05:33:45.128Z,1025.15
2022-10-31T05:34:45.114Z,1025.11
2022-10-31T05:35:45.109Z,1025.12
2022-10-31T05:36:45.111Z,1025.08
2022-10-31T05:37:45.119Z,1025.12
2022-10-31T05:38:45.111Z,1025.11
2022-10-31T05:39:45.136Z,1025.17
2022-10-31T05:40:45.175Z,1025.17
2022-10-31T05:41:45.110Z,1025.13
2022-10-31T05:42:45.117Z,1025.15
2022-10-31T05:43:45.115Z,1025.12
2022-10-31T05:44:45.103Z,1025.12
2022-10-31T05:45:45.112Z,1025.12
2022-10-31T05:46:45.200Z,1025.14
2022-10-31T05:47:45.133Z,1025.12
2022-10-31T05:48:45.103Z,1025.16
2022-10-31T05:49:45.111Z,1025.14
2022-10-31T05:50:45.117Z,1025.12
2022-10-31T05:51:45.110Z,1025.1
2022-10-31T05:52:45.103Z,1025.15
2022-10-31T05:53:45.110Z,1025.13
2022-10-31T05:54:45.134Z,1025.13
2022-10-31T05:55:45.095Z,1025.14
2022-10-31T05:56:45.097Z,1025.14
2022-10-31T05:57:45.125Z,1025.14
2022-10-31T05:58:45.091Z,1025.13
2022-10-31T05:59:45.113Z,1025.12
2022-10-31T06:00:45.092Z,1025.12
2022-10-31T06:01:45.239Z,1025.12
2022-10-31T06:02:45.111Z,1025.15
2022-10-31T06:03:45.177Z,1025.17
2022-10-31T06:04:45.157Z,1025.19
2022-10-31T06:05:47.930Z,1025.13
2022-10-31T06:06:45.092Z,1025.19
2022-10-31T06:07:45.134Z,1025.19
2022-10-31T06:08:45.092Z,1025.19
2022-10-31T06:09:45.120Z,1025.19
2022-10-31T06:10:45.104Z,1025.19
2022-10-31T06:11:45.091Z,1025.19
2022-10-31T06:12:45.114Z,1025.17
2022-10-31T06:13:45.116Z,1025.15
2022-10-31T06:14:45.097Z,1025.19
2022-10-31T06:15:45.110Z,1025.2
2022-10-31T06:16:45.095Z,1025.21
2022-10-31T06:17:45.108Z,1025.2
2022-10-31T06:18:45.116Z,1025.19
2022-10-31T06:19:45.170Z,1025.22
2022-10-31T06:20:45.109Z,1025.22
2022-10-31T06:21:45.120Z,1025.23
2022-10-31T06:22:45.119Z,1025.21
2022-10-31T06:23:45.114Z,1025.21
2022-10-31T06:24:45.121Z,1025.22
2022-10-31T06:25:45.120Z,1025.2
2022-10-31T06:26:45.112Z,1025.16
2022-10-31T06:27:45.118Z,1025.21
2022-10-31T06:28:45.137Z,1025.17
2022-10-31T06:29:45.112Z,1025.24
2022-10-31T06:30:45.110Z,1025.22
2022-10-31T06:31:45.115Z,1025.2
2022-10-31T06:32:45.114Z,1025.21
2022-10-31T06:33:45.115Z,1025.14
2022-10-31T06:34:45.117Z,1025.26
2022-10-31T06:35:45.181Z,1025.2
2022-10-31T06:36:45.098Z,1025.24
2022-10-31T06:37:48.192Z,1025.27
2022-10-31T06:38:45.115Z,1025.29
2022-10-31T06:39:45.129Z,1025.26
2022-10-31T06:40:45.116Z,1025.25
2022-10-31T06:41:45.117Z,1025.25
2022-10-31T06:42:45.112Z,1025.28
2022-10-31T06:43:45.122Z,1025.3
2022-10-31T06:44:45.112Z,1025.33
2022-10-31T06:45:45.113Z,1025.3
2022-10-31T06:46:45.113Z,1025.28
2022-10-31T06:48:03.854Z,1025.3
2022-10-31T06:48:45.116Z,1025.3
2022-10-31T06:49:45.113Z,1025.31
2022-10-31T06:50:45.114Z,1025.28
2022-10-31T06:51:45.119Z,1025.31
2022-10-31T06:52:45.115Z,1025.33
2022-10-31T06:53:45.118Z,1025.33
2022-10-31T06:54:45.127Z,1025.34
2022-10-31T06:55:45.107Z,1025.33
2022-10-31T06:56:45.115Z,1025.28
2022-10-31T06:57:45.126Z,1025.33
2022-10-31T06:58:45.108Z,1025.31
2022-10-31T06:59:45.116Z,1025.33
2022-10-31T07:00:45.133Z,1025.32
2022-10-31T07:01:45.231Z,1025.29
2022-10-31T07:02:45.122Z,1025.33
2022-10-31T07:03:45.110Z,1025.34
2022-10-31T07:04:45.104Z,1025.34
2022-10-31T07:05:45.098Z,1025.43
2022-10-31T07:06:48.253Z,1025.44
2022-10-31T07:07:45.135Z,1025.43
2022-10-31T07:08:45.097Z,1025.43
2022-10-31T07:09:45.132Z,1025.46
2022-10-31T07:10:45.099Z,1025.46
2022-10-31T07:11:45.096Z,1025.46
2022-10-31T07:12:45.183Z,1025.47
2022-10-31T07:13:45.093Z,1025.46
2022-10-31T07:14:45.093Z,1025.45
2022-10-31T07:15:45.111Z,1025.47
2022-10-31T07:16:45.093Z,1025.51
2022-10-31T07:17:45.130Z,1025.51
2022-10-31T07:18:45.097Z,1025.53
2022-10-31T07:19:45.098Z,1025.52
2022-10-31T07:20:45.110Z,1025.52
2022-10-31T07:21:45.096Z,1025.54
2022-10-31T07:22:49.620Z,1025.53
2022-10-31T07:23:45.111Z,1025.55
2022-10-31T07:24:45.121Z,1025.59
2022-10-31T07:25:45.097Z,1025.56
2022-10-31T07:26:45.108Z,1025.56
2022-10-31T07:27:45.107Z,1025.53
2022-10-31T07:28:45.129Z,1025.52
2022-10-31T07:29:45.110Z,1025.53
2022-10-31T07:30:45.113Z,1025.54
2022-10-31T07:31:45.135Z,1025.55
2022-10-31T07:32:45.118Z,1025.54
2022-10-31T07:33:45.119Z,1025.54
2022-10-31T07:34:47.476Z,1025.51
2022-10-31T07:35:45.139Z,1025.5
2022-10-31T07:36:45.105Z,1025.51
2022-10-31T07:37:45.122Z,1025.55
2022-10-31T07:38:45.121Z,1025.53
2022-10-31T07:39:45.121Z,1025.51
2022-10-31T07:40:45.121Z,1025.56
2022-10-31T07:41:45.111Z,1025.54
2022-10-31T07:42:45.109Z,1025.56
2022-10-31T07:43:45.156Z,1025.55
2022-10-31T07:44:45.115Z,1025.56
2022-10-31T07:45:45.096Z,1025.56
2022-10-31T07:46:45.114Z,1025.54
2022-10-31T07:47:45.125Z,1025.56
2022-10-31T07:48:45.117Z,1025.52
2022-10-31T07:49:45.118Z,1025.56
2022-10-31T07:50:45.112Z,1025.54
2022-10-31T07:51:46.524Z,1025.61
2022-10-31T07:52:45.111Z,1025.58
2022-10-31T07:53:45.105Z,1025.58
2022-10-31T07:54:45.130Z,1025.61
2022-10-31T07:55:45.109Z,1025.63
2022-10-31T07:56:45.112Z,1025.59
2022-10-31T07:57:45.129Z,1025.61
2022-10-31T07:58:45.114Z,1025.58
2022-10-31T07:59:45.112Z,1025.59
2022-10-31T08:00:45.252Z,1025.61
2022-10-31T08:01:45.132Z,1025.55
2022-10-31T08:02:45.151Z,1025.58
2022-10-31T08:03:45.112Z,1025.61
2022-10-31T08:04:45.110Z,1025.58
2022-10-31T08:05:45.111Z,1025.55
2022-10-31T08:06:45.131Z,1025.57
2022-10-31T08:07:45.138Z,1025.6
2022-10-31T08:08:45.162Z,1025.6
2022-10-31T08:09:45.136Z,1025.58
2022-10-31T08:10:45.117Z,1025.59
2022-10-31T08:11:45.199Z,1025.58
2022-10-31T08:12:45.118Z,1025.57
2022-10-31T08:13:45.113Z,1025.57
2022-10-31T08:14:45.102Z,1025.61
2022-10-31T08:15:45.110Z,1025.56
2022-10-31T08:16:45.094Z,1025.59
2022-10-31T08:17:45.115Z,1025.59
2022-10-31T08:18:45.093Z,1025.6
2022-10-31T08:19:45.097Z,1025.57
2022-10-31T08:20:45.108Z,1025.57
2022-10-31T08:21:45.095Z,1025.52
2022-10-31T08:22:45.115Z,1025.54
2022-10-31T08:23:45.096Z,1025.53
2022-10-31T08:24:45.139Z,1025.55
2022-10-31T08:25:45.097Z,1025.57
2022-10-31T08:26:45.097Z,1025.54
2022-10-31T08:27:45.120Z,1025.53
2022-10-31T08:28:45.105Z,1025.54
2022-10-31T08:29:45.098Z,1025.52
2022-10-31T08:30:45.098Z,1025.55
2022-10-31T08:31:45.098Z,1025.56
2022-10-31T08:32:45.108Z,1025.5
2022-10-31T08:33:45.098Z,1025.5
2022-10-31T08:34:45.096Z,1025.54
2022-10-31T08:35:45.095Z,1025.52
2022-10-31T08:36:45.118Z,1025.54
2022-10-31T08:37:45.117Z,1025.56
2022-10-31T08:38:45.114Z,1025.5
2022-10-31T08:39:45.143Z,1025.51
2022-10-31T08:40:45.117Z,1025.5
2022-10-31T08:41:45.113Z,1025.51
2022-10-31T08:42:45.117Z,1025.54
2022-10-31T08:43:45.107Z,1025.49
2022-10-31T08:44:45.113Z,1025.49
2022-10-31T08:45:45.109Z,1025.51
2022-10-31T08:46:45.124Z,1025.51
2022-10-31T08:47:45.130Z,1025.53
2022-10-31T08:48:45.104Z,1025.5
2022-10-31T08:49:45.109Z,1025.46
2022-10-31T08:50:45.113Z,1025.48
2022-10-31T08:51:45.099Z,1025.51
2022-10-31T08:53:04.077Z,1025.47
2022-10-31T08:53:45.112Z,1025.47
2022-10-31T08:54:45.124Z,1025.5
2022-10-31T08:55:45.126Z,1025.5
2022-10-31T08:56:45.115Z,1025.5
2022-10-31T08:57:45.119Z,1025.53
2022-10-31T08:58:45.097Z,1025.5
2022-10-31T08:59:45.094Z,1025.49
2022-10-31T09:00:45.178Z,1025.49
2022-10-31T09:01:45.189Z,1025.48
2022-10-31T09:02:45.122Z,1025.51
2022-10-31T09:03:45.118Z,1025.47
2022-10-31T09:04:45.121Z,1025.49
2022-10-31T09:05:45.158Z,1025.46
2022-10-31T09:07:08.030Z,1025.48
2022-10-31T09:07:45.120Z,1025.48
2022-10-31T09:08:45.120Z,1025.48
2022-10-31T09:09:45.114Z,1025.43
2022-10-31T09:10:45.129Z,1025.43
2022-10-31T09:11:45.110Z,1025.49
2022-10-31T09:12:45.128Z,1025.46
2022-10-31T09:13:45.110Z,1025.43
2022-10-31T09:14:45.111Z,1025.46
2022-10-31T09:15:45.120Z,1025.48
2022-10-31T09:16:45.120Z,1025.42
2022-10-31T09:17:45.409Z,1025.46
2022-10-31T09:18:45.164Z,1025.46
2022-10-31T09:19:45.117Z,1025.47
2022-10-31T09:20:45.095Z,1025.44
2022-10-31T09:21:45.116Z,1025.42
2022-10-31T09:22:45.126Z,1025.47
2022-10-31T09:23:45.134Z,1025.44
2022-10-31T09:24:45.134Z,1025.4
2022-10-31T09:25:50.219Z,1025.39
2022-10-31T09:26:45.116Z,1025.39
2022-10-31T09:27:45.112Z,1025.38
2022-10-31T09:28:45.094Z,1025.36
2022-10-31T09:29:45.094Z,1025.35
2022-10-31T09:30:45.122Z,1025.35
2022-10-31T09:31:45.294Z,1025.39
2022-10-31T09:32:45.116Z,1025.37
2022-10-31T09:33:45.109Z,1025.34
2022-10-31T09:34:45.095Z,1025.4
2022-10-31T09:35:45.109Z,1025.4
2022-10-31T09:36:45.452Z,1025.43
2022-10-31T09:37:45.123Z,1025.38
2022-10-31T09:38:45.093Z,1025.38
2022-10-31T09:39:45.099Z,1025.37
2022-10-31T09:40:45.113Z,1025.46
2022-10-31T09:41:45.683Z,1025.43
2022-10-31T09:42:45.124Z,1025.4
2022-10-31T09:43:45.094Z,1025.42
2022-10-31T09:44:45.099Z,1025.36
2022-10-31T09:45:45.112Z,1025.37
2022-10-31T09:46:45.162Z,1025.36
2022-10-31T09:47:45.222Z,1025.34
2022-10-31T09:48:45.114Z,1025.35
2022-10-31T09:49:45.196Z,1025.33
2022-10-31T09:50:45.106Z,1025.36
2022-10-31T09:51:48.030Z,1025.32
2022-10-31T09:52:45.290Z,1025.33
2022-10-31T09:53:45.127Z,1025.35
2022-10-31T09:54:45.115Z,1025.35
2022-10-31T09:55:45.118Z,1025.34
2022-10-31T09:56:45.120Z,1025.32
2022-10-31T09:57:45.125Z,1025.31
2022-10-31T09:58:45.571Z,1025.29
2022-10-31T09:59:45.120Z,1025.26
2022-10-31T10:00:45.233Z,1025.27
2022-10-31T10:01:45.309Z,1025.29
2022-10-31T10:02:45.125Z,1025.27
2022-10-31T10:03:45.108Z,1025.27
2022-10-31T10:04:45.122Z,1025.28
2022-10-31T10:05:45.109Z,1025.26
2022-10-31T10:06:45.121Z,1025.22
2022-10-31T10:07:45.125Z,1025.25
2022-10-31T10:08:45.115Z,1025.25
2022-10-31T10:09:45.112Z,1025.21
2022-10-31T10:10:45.468Z,1025.19
2022-10-31T10:11:45.110Z,1025.21
2022-10-31T10:12:45.119Z,1025.22
2022-10-31T10:13:45.124Z,1025.22
2022-10-31T10:14:45.118Z,1025.21
2022-10-31T10:15:45.497Z,1025.21
2022-10-31T10:16:45.106Z,1025.15
2022-10-31T10:17:45.210Z,1025.2
2022-10-31T10:18:45.111Z,1025.19
2022-10-31T10:19:45.121Z,1025.15
2022-10-31T10:20:45.606Z,1025.16
2022-10-31T10:21:45.113Z,1025.15
2022-10-31T10:22:45.122Z,1025.13
2022-10-31T10:23:45.115Z,1025.12
2022-10-31T10:24:45.115Z,1025.17
2022-10-31T10:25:45.277Z,1025.17
2022-10-31T10:26:45.115Z,1025.17
2022-10-31T10:27:45.120Z,1025.2
2022-10-31T10:28:45.116Z,1025.14
2022-10-31T10:29:45.108Z,1025.16
2022-10-31T10:30:45.125Z,1025.1
2022-10-31T10:31:45.118Z,1025.13
2022-10-31T10:32:49.355Z,1025.11
2022-10-31T10:33:45.115Z,1025.11
2022-10-31T10:34:45.118Z,1025.11
2022-10-31T10:35:45.096Z,1025.07
2022-10-31T10:36:45.093Z,1025.07
2022-10-31T10:37:45.115Z,1025.1
2022-10-31T10:38:45.112Z,1025.09
2022-10-31T10:39:45.096Z,1025.08
2022-10-31T10:40:45.120Z,1025.07
2022-10-31T10:41:45.092Z,1025.05
2022-10-31T10:42:45.124Z,1025.07
2022-10-31T10:44:45.108Z,1025.07
2022-10-31T10:45:45.094Z,1025.06
2022-10-31T10:46:45.099Z,1025.07
2022-10-31T10:47:45.116Z,1025.04
2022-10-31T10:48:45.091Z,1025.02
2022-10-31T10:49:45.113Z,1025.02
2022-10-31T10:50:45.092Z,1025
2022-10-31T10:52:02.699Z,1025.03
2022-10-31T10:52:49.467Z,1024.98
2022-10-31T10:53:45.105Z,1024.99
2022-10-31T10:54:45.123Z,1025.01
2022-10-31T10:55:45.097Z,1024.98
2022-10-31T10:56:45.118Z,1024.98
2022-10-31T10:57:45.127Z,1024.97
2022-10-31T10:58:45.116Z,1024.94
2022-10-31T10:59:45.106Z,1024.93
2022-10-31T11:00:45.183Z,1024.91
2022-10-31T11:01:45.119Z,1024.92
2022-10-31T11:02:48.051Z,1024.91
2022-10-31T11:03:45.113Z,1024.86
2022-10-31T11:04:45.108Z,1024.86
2022-10-31T11:05:45.157Z,1024.86
2022-10-31T11:06:45.108Z,1024.85
2022-10-31T11:07:45.129Z,1024.84
2022-10-31T11:08:45.113Z,1024.84
2022-10-31T11:09:45.111Z,1024.81
2022-10-31T11:10:45.112Z,1024.8
2022-10-31T11:11:45.113Z,1024.76
2022-10-31T11:12:45.132Z,1024.78
2022-10-31T11:13:45.148Z,1024.75
2022-10-31T11:14:45.116Z,1024.73
2022-10-31T11:15:45.124Z,1024.73
2022-10-31T11:16:45.116Z,1024.68
2022-10-31T11:17:45.212Z,1024.66
2022-10-31T11:18:45.107Z,1024.66
2022-10-31T11:19:45.108Z,1024.62
2022-10-31T11:20:45.111Z,1024.67
2022-10-31T11:21:48.471Z,1024.63
2022-10-31T11:22:45.117Z,1024.62
2022-10-31T11:23:45.121Z,1024.64
2022-10-31T11:24:45.139Z,1024.56
2022-10-31T11:25:45.116Z,1024.58
2022-10-31T11:26:45.106Z,1024.59
2022-10-31T11:27:45.146Z,1024.54
2022-10-31T11:28:45.116Z,1024.53
2022-10-31T11:29:45.110Z,1024.5
2022-10-31T11:30:45.114Z,1024.49
2022-10-31T11:31:45.106Z,1024.5
2022-10-31T11:32:45.134Z,1024.45
2022-10-31T11:33:45.126Z,1024.44
2022-10-31T11:34:45.179Z,1024.41
2022-10-31T11:35:45.119Z,1024.43
2022-10-31T11:36:45.109Z,1024.38
2022-10-31T11:37:45.203Z,1024.4
2022-10-31T11:38:45.108Z,1024.41
2022-10-31T11:39:45.115Z,1024.35
2022-10-31T11:40:45.093Z,1024.35
2022-10-31T11:41:45.101Z,1024.35
2022-10-31T11:42:45.121Z,1024.34
2022-10-31T11:43:45.108Z,1024.34
2022-10-31T11:44:45.091Z,1024.36
2022-10-31T11:45:45.095Z,1024.33
2022-10-31T11:46:45.104Z,1024.28
2022-10-31T11:47:45.193Z,1024.32
2022-10-31T11:48:45.096Z,1024.26
2022-10-31T11:49:45.112Z,1024.27
2022-10-31T11:50:45.108Z,1024.27
2022-10-31T11:51:45.111Z,1024.26
2022-10-31T11:52:45.177Z,1024.29
2022-10-31T11:53:45.098Z,1024.26
2022-10-31T11:54:45.092Z,1024.27
2022-10-31T11:55:45.112Z,1024.24
2022-10-31T11:56:45.095Z,1024.23
2022-10-31T11:57:45.208Z,1024.18
2022-10-31T11:58:45.092Z,1024.19
2022-10-31T11:59:45.120Z,1024.23
2022-10-31T12:00:45.099Z,1024.19
2022-10-31T12:01:45.403Z,1024.19
2022-10-31T12:02:45.262Z,1024.21
2022-10-31T12:03:45.106Z,1024.15
2022-10-31T12:04:45.131Z,1024.11
2022-10-31T12:05:45.104Z,1024.09
2022-10-31T12:06:45.168Z,1024.12
2022-10-31T12:07:45.160Z,1024.08
2022-10-31T12:08:45.118Z,1024.08